NTAA/PPT METAR and TAF weather

Enter ICAO airport designator
Station Type Date Time Source
NTAA METAR 2020/01/24 03:00 UTC NOAA

NTAA 240300Z 29005KT 9999 FEW025 SCT076 30/23 Q1012 NOSIG


Station Type Date Time Source
NTAA Decoded METAR 2020/01/24 03:00 UTC NOAA

Tahiti-Faaa, French Polynesia (NTAA) 17-33S 149-37W 2M
Jan 23, 2020 - 10:00 PM EST / 2020.01.24 0300 UTC
Wind: from the WNW (290 degrees) at 6 MPH (5 KT):0
Visibility: greater than 7 mile(s):0
Sky conditions: partly cloudy
Temperature: 86 F (30 C)
Heat index: 93.4 F (34.1 C):1
Dew Point: 73 F (23 C)
Relative Humidity: 66%
Pressure (altimeter): 29.88 in. Hg (1012 hPa)
ob: NTAA 240300Z 29005KT 9999 FEW025 SCT076 30/23 Q1012 NOSIG
cycle: 3

Station Type Date Time Source
NTAA TAF 2020/01/23 18:12 UTC NOAA

TAF NTAA 231700Z 2318/2424 VRB05KT 9999 FEW017TCU
BECMG 2318/2320 06012KT
BECMG 2402/2404 VRB03KT

Example: see airport list